Time;durP1;ratioP1;P1;durP2;ratioP2;P2;SDS_P1;SDS_P2;PMS_P1;PMS_P2;Temp;Humidity;BMP_temperature;BMP_pressure;BME280_temperature;BME280_humidity;BME280_pressure;Samples;Min_cycle;Max_cycle;Signal;HPM_P1;HPM_P2
2022/02/02 00:02:01;;;;;;;0.00;0.00;;;8.70;99.90;;;;;;5032305;28;20028;-83
2022/02/02 00:04:22;;;;;;;0.10;0.10;;;8.70;99.90;;;;;;5031444;28;20045;-72
2022/02/02 00:07:21;;;;;;;0.00;0.00;;;8.70;99.90;;;;;;5012346;28;20021;-73
2022/02/02 00:09:34;;;;;;;0.00;0.00;;;8.70;99.90;;;;;;5011720;28;20045;-83
2022/02/02 00:12:20;;;;;;;0.32;0.32;;;8.70;99.90;;;;;;5012561;28;20052;-75
2022/02/02 00:14:57;;;;;;;11.77;0.88;;;8.70;99.90;;;;;;5011969;28;20553;-82
2022/02/02 00:18:08;;;;;;;0.70;0.55;;;8.70;99.90;;;;;;5010256;28;20493;-72
2022/02/02 00:20:23;;;;;;;0.00;0.00;;;8.60;99.90;;;;;;5011189;28;20493;-82
2022/02/02 00:22:52;;;;;;;0.00;0.00;;;8.60;99.90;;;;;;5030752;28;20025;-73
2022/02/02 00:25:25;;;;;;;0.00;0.00;;;8.60;99.90;;;;;;5031955;28;20077;-83
2022/02/02 00:27:55;;;;;;;;;;;8.60;99.90;;;;;;5031813;28;20053;-72
2022/02/02 00:30:25;;;;;;;0.00;0.00;;;8.60;99.90;;;;;;5031411;28;19912;-73
2022/02/02 00:35:31;;;;;;;0.00;0.00;;;8.60;99.90;;;;;;5035629;28;20037;-72
2022/02/02 00:37:56;;;;;;;0.00;0.00;;;8.60;99.90;;;;;;5035300;28;20025;-73
2022/02/02 00:40:22;;;;;;;0.00;0.00;;;8.60;99.90;;;;;;5035369;28;20553;-72
2022/02/02 00:42:50;;;;;;;0.00;0.00;;;8.60;99.90;;;;;;5035213;28;20051;-73
2022/02/02 00:45:16;;;;;;;1.17;0.57;;;8.50;99.90;;;;;;5034735;28;20033;-84
2022/02/02 00:47:47;;;;;;;0.00;0.00;;;8.50;99.90;;;;;;5035147;28;20032;-84
2022/02/02 00:50:12;;;;;;;0.20;0.17;;;8.50;99.90;;;;;;5035395;28;20400;-84
2022/02/02 00:52:38;;;;;;;0.00;0.00;;;8.50;99.90;;;;;;5035146;28;20152;-84
2022/02/02 00:55:04;;;;;;;0.10;0.10;;;8.50;99.90;;;;;;5035025;28;20083;-85
2022/02/02 00:57:30;;;;;;;0.00;0.00;;;8.50;99.90;;;;;;5033309;28;20033;-72
2022/02/02 00:59:57;;;;;;;0.00;0.00;;;8.50;99.90;;;;;;5035666;28;20044;-73
2022/02/02 01:02:23;;;;;;;0.00;0.00;;;8.50;99.90;;;;;;5035019;28;20052;-84
2022/02/02 01:04:48;;;;;;;0.00;0.00;;;8.40;99.90;;;;;;5030569;28;20029;-82
2022/02/02 01:07:31;;;;;;;0.00;0.00;;;8.40;99.90;;;;;;5014234;28;20029;-84
2022/02/02 01:10:19;;;;;;;0.00;0.00;;;8.40;99.90;;;;;;5013634;28;20818;-73
2022/02/02 01:13:22;;;;;;;0.00;0.00;;;8.40;99.90;;;;;;5014675;28;20033;-82
2022/02/02 01:18:22;;;;;;;0.08;0.08;;;8.40;99.90;;;;;;5015063;28;20037;-73
2022/02/02 01:28:35;;;;;;;0.10;0.10;;;8.40;99.90;;;;;;5034701;28;20029;-73
2022/02/02 01:31:02;;;;;;;0.20;0.20;;;8.40;99.90;;;;;;5034639;28;20035;-73
2022/02/02 01:33:29;;;;;;;0.00;0.00;;;8.40;99.90;;;;;;5034476;28;20024;-85
2022/02/02 01:35:56;;;;;;;0.00;0.00;;;8.40;99.90;;;;;;5045341;28;20112;-72
2022/02/02 01:38:25;;;;;;;0.00;0.00;;;8.40;99.90;;;;;;5034588;28;20022;-84
2022/02/02 01:40:56;;;;;;;0.00;0.00;;;8.40;99.90;;;;;;5033906;28;20044;-84
2022/02/02 01:43:27;;;;;;;0.00;0.00;;;8.30;99.90;;;;;;5034439;28;20021;-72
2022/02/02 01:45:58;;;;;;;0.00;0.00;;;8.20;99.90;;;;;;5034202;28;20025;-72
2022/02/02 01:53:28;;;;;;;0.00;0.00;;;8.30;99.90;;;;;;5013934;28;20493;-83
2022/02/02 01:55:54;;;;;;;0.00;0.00;;;8.30;99.90;;;;;;5014508;28;20033;-72
2022/02/02 02:00:46;;;;;;;0.00;0.00;;;8.30;99.90;;;;;;5013602;28;20030;-73
2022/02/02 02:03:11;;;;;;;0.00;0.00;;;8.30;99.90;;;;;;5013975;28;20026;-72
2022/02/02 02:05:37;;;;;;;0.00;0.00;;;8.30;99.90;;;;;;5020538;28;20116;-82
2022/02/02 02:08:03;;;;;;;0.00;0.00;;;8.30;99.90;;;;;;5033415;28;20018;-72
2022/02/02 02:10:28;;;;;;;0.00;0.00;;;8.30;99.90;;;;;;5033640;28;20029;-73
2022/02/02 02:13:18;;;;;;;0.00;0.00;;;8.30;99.90;;;;;;5033722;28;20532;-73
2022/02/02 02:15:44;;;;;;;0.00;0.00;;;8.30;99.90;;;;;;5036270;28;20029;-73
2022/02/02 02:18:10;;;;;;;0.00;0.00;;;8.30;99.90;;;;;;5031730;28;20100;-83
2022/02/02 02:20:36;;;;;;;0.00;0.00;;;8.30;99.90;;;;;;5033549;28;20108;-72
2022/02/02 02:23:02;;;;;;;0.00;0.00;;;8.20;99.90;;;;;;5033207;28;20036;-72
2022/02/02 02:25:31;;;;;;;0.00;0.00;;;8.30;99.90;;;;;;5033438;28;20099;-83
2022/02/02 02:28:10;;;;;;;0.00;0.00;;;8.20;99.90;;;;;;5033423;28;20169;-73
2022/02/02 02:30:46;;;;;;;0.00;0.00;;;8.20;99.90;;;;;;5033557;28;20018;-84
2022/02/02 02:38:53;;;;;;;0.00;0.00;;;8.10;99.90;;;;;;4991359;28;20030;-83
2022/02/02 02:57:58;;;;;;;0.00;0.00;;;8.10;99.90;;;;;;5033138;28;20032;-72
2022/02/02 03:00:51;;;;;;;0.00;0.00;;;8.10;99.90;;;;;;5032919;28;20025;-72
2022/02/02 03:30:19;;;;;;;0.00;0.00;;;8.10;99.90;;;;;;5032387;28;20116;-72
2022/02/02 03:34:35;;;;;;;0.00;0.00;;;8.10;99.90;;;;;;5043286;28;20503;-73
2022/02/02 04:07:46;;;;;;;0.00;0.00;;;8.20;99.90;;;;;;5032737;28;20400;-84
2022/02/02 04:10:12;;;;;;;0.00;0.00;;;8.20;99.90;;;;;;5035776;28;20392;-84
2022/02/02 04:55:57;;;;;;;0.17;0.17;;;8.20;99.90;;;;;;5035405;28;20022;-72
2022/02/02 05:06:11;;;;;;;0.00;0.00;;;8.20;99.90;;;;;;5034844;28;20056;-73
2022/02/02 05:09:08;;;;;;;0.00;0.00;;;8.20;99.90;;;;;;5033337;28;20432;-84
2022/02/02 05:18:45;;;;;;;0.00;0.00;;;8.20;99.90;;;;;;5032822;28;20049;-72
2022/02/02 05:53:04;;;;;;;0.00;0.00;;;8.00;99.90;;;;;;5033594;28;20100;-84
2022/02/02 05:55:40;;;;;;;0.00;0.00;;;8.00;99.90;;;;;;5034199;28;20030;-84
2022/02/02 05:58:09;;;;;;;0.08;0.08;;;8.00;99.90;;;;;;5031347;28;20075;-73
2022/02/02 06:00:39;;;;;;;0.00;0.00;;;8.00;99.90;;;;;;5032789;28;20124;-84
2022/02/02 06:03:13;;;;;;;0.00;0.00;;;8.00;99.90;;;;;;5034084;28;20034;-73
2022/02/02 06:05:40;;;;;;;0.00;0.00;;;8.00;99.90;;;;;;5053409;28;20021;-72
2022/02/02 06:08:11;;;;;;;0.00;0.00;;;8.00;99.90;;;;;;5031719;28;20030;-74
2022/02/02 06:10:38;;;;;;;0.00;0.00;;;8.00;99.90;;;;;;5020777;28;20029;-72
2022/02/02 06:13:04;;;;;;;0.00;0.00;;;8.00;99.90;;;;;;5033546;28;20038;-84
2022/02/02 06:15:31;;;;;;;0.00;0.00;;;8.00;99.90;;;;;;5033573;28;20018;-73
2022/02/02 06:17:59;;;;;;;0.00;0.00;;;8.00;99.90;;;;;;5033143;28;20503;-72
2022/02/02 06:20:25;;;;;;;0.00;0.00;;;8.00;99.90;;;;;;5027476;28;20105;-72
2022/02/02 06:22:59;;;;;;;0.00;0.00;;;7.90;99.90;;;;;;5013786;28;20148;-84
2022/02/02 06:25:29;;;;;;;0.00;0.00;;;7.90;99.90;;;;;;5013715;28;20425;-84
2022/02/02 06:28:04;;;;;;;0.60;0.28;;;7.90;99.90;;;;;;5013775;28;20128;-78
2022/02/02 06:30:31;;;;;;;0.00;0.00;;;7.90;99.90;;;;;;5031699;28;20041;-72
2022/02/02 06:33:04;;;;;;;1.45;1.17;;;7.90;99.90;;;;;;5030822;28;20546;-84
2022/02/02 06:35:31;;;;;;;0.00;0.00;;;7.90;99.90;;;;;;5026260;28;20025;-72
2022/02/02 06:37:57;;;;;;;0.08;0.08;;;8.00;99.90;;;;;;5031864;28;20757;-84
2022/02/02 06:40:23;;;;;;;0.00;0.00;;;8.00;99.90;;;;;;5033087;28;20067;-84
2022/02/02 06:42:52;;;;;;;0.00;0.00;;;8.00;99.90;;;;;;5032886;28;20036;-73
2022/02/02 06:45:19;;;;;;;0.00;0.00;;;8.00;99.90;;;;;;5033075;28;20025;-84
2022/02/02 06:47:46;;;;;;;0.00;0.00;;;8.00;99.90;;;;;;5029668;28;20040;-72
2022/02/02 06:50:21;;;;;;;0.00;0.00;;;8.00;99.90;;;;;;5031079;28;20033;-73
2022/02/02 06:53:03;;;;;;;0.00;0.00;;;7.90;99.90;;;;;;5031703;28;20032;-84
2022/02/02 06:55:39;;;;;;;0.00;0.00;;;7.90;99.90;;;;;;5012354;28;20095;-85
2022/02/02 06:58:24;;;;;;;0.10;0.10;;;7.90;99.90;;;;;;5028183;28;20029;-83
2022/02/02 07:03:45;;;;;;;0.00;0.00;;;7.90;99.90;;;;;;5032516;28;20400;-84
2022/02/02 07:06:34;;;;;;;0.00;0.00;;;7.90;99.90;;;;;;5022652;28;20052;-72
2022/02/02 07:22:24;;;;;;;0.30;0.30;;;7.80;99.90;;;;;;5027988;28;20064;-74
2022/02/02 07:25:19;;;;;;;0.00;0.00;;;7.80;99.90;;;;;;5027680;28;20037;-73
2022/02/02 07:27:55;;;;;;;0.00;0.00;;;7.80;99.90;;;;;;5026763;28;20033;-72
2022/02/02 07:30:29;;;;;;;0.10;0.10;;;7.80;99.90;;;;;;5027812;28;20033;-82
2022/02/02 07:33:34;;;;;;;0.00;0.00;;;7.80;99.90;;;;;;5029662;28;20026;-85
2022/02/02 07:35:58;;;;;;;0.00;0.00;;;7.90;99.90;;;;;;5031868;28;20492;-72
2022/02/02 07:38:31;;;;;;;0.00;0.00;;;7.80;99.90;;;;;;5037472;28;20485;-85
2022/02/02 07:41:06;;;;;;;0.00;0.00;;;7.90;99.90;;;;;;5025427;28;20056;-73
2022/02/02 07:43:36;;;;;;;0.00;0.00;;;7.90;99.90;;;;;;5021254;28;20104;-86
2022/02/02 07:46:06;;;;;;;1.17;0.60;;;7.90;99.90;;;;;;5034645;28;20079;-82
2022/02/02 07:48:37;;;;;;;0.00;0.00;;;7.80;99.90;;;;;;5034559;28;20071;-85
2022/02/02 07:51:04;;;;;;;0.00;0.00;;;7.80;99.90;;;;;;5042521;28;20029;-73
2022/02/02 07:53:49;;;;;;;0.00;0.00;;;7.80;99.90;;;;;;5054375;28;20028;-72
2022/02/02 07:56:20;;;;;;;0.00;0.00;;;7.70;99.90;;;;;;5036949;28;20025;-84
2022/02/02 07:58:49;;;;;;;0.00;0.00;;;7.70;99.90;;;;;;5034635;28;20492;-73
2022/02/02 08:01:17;;;;;;;0.00;0.00;;;7.60;99.90;;;;;;5034447;28;20108;-81
2022/02/02 08:03:51;;;;;;;0.00;0.00;;;7.70;99.90;;;;;;5035196;28;20025;-73
2022/02/02 08:06:21;;;;;;;0.00;0.00;;;7.70;99.90;;;;;;5034031;28;20295;-73
2022/02/02 08:08:50;;;;;;;0.00;0.00;;;7.70;99.90;;;;;;5025226;28;20107;-86
2022/02/02 08:11:25;;;;;;;0.00;0.00;;;7.80;99.90;;;;;;5027511;28;20030;-86
2022/02/02 08:13:55;;;;;;;0.00;0.00;;;7.90;99.90;;;;;;5028500;28;20030;-84
2022/02/02 08:16:22;;;;;;;0.10;0.10;;;7.80;99.90;;;;;;5027209;28;20392;-73
2022/02/02 08:18:50;;;;;;;0.00;0.00;;;7.80;99.90;;;;;;5035261;28;20017;-74
2022/02/02 08:21:16;;;;;;;0.00;0.00;;;7.90;99.90;;;;;;5042828;28;20066;-84
2022/02/02 08:23:42;;;;;;;0.00;0.00;;;7.90;99.90;;;;;;5032446;28;20025;-81
2022/02/02 08:26:13;;;;;;;0.00;0.00;;;7.90;99.90;;;;;;5033849;28;20477;-84
2022/02/02 08:28:40;;;;;;;0.00;0.00;;;8.00;99.90;;;;;;5033333;28;20104;-73
2022/02/02 08:31:06;;;;;;;0.00;0.00;;;7.90;99.90;;;;;;5019225;28;20508;-85
2022/02/02 08:33:37;;;;;;;0.00;0.00;;;8.00;99.90;;;;;;5017725;28;20045;-85
2022/02/02 08:36:04;;;;;;;0.00;0.00;;;7.90;99.90;;;;;;5026788;28;20036;-73
2022/02/02 08:41:27;;;;;;;0.00;0.00;;;8.00;99.90;;;;;;5046418;28;20041;-80
2022/02/02 08:44:03;;;;;;;0.00;0.00;;;8.00;99.90;;;;;;5033220;28;20029;-73
2022/02/02 08:46:43;;;;;;;0.00;0.00;;;8.00;99.90;;;;;;5033048;28;20028;-72
2022/02/02 08:49:12;;;;;;;0.00;0.00;;;8.00;99.90;;;;;;5032817;28;20100;-79
2022/02/02 08:51:41;;;;;;;0.00;0.00;;;8.10;99.90;;;;;;5031902;28;20036;-75
2022/02/02 09:01:46;;;;;;;0.00;0.00;;;8.10;99.90;;;;;;5036462;28;20087;-81
2022/02/02 09:06:56;;;;;;;0.22;0.22;;;8.20;99.90;;;;;;5043777;28;20068;-77
2022/02/02 09:09:35;;;;;;;0.00;0.00;;;8.30;99.90;;;;;;5037693;28;20428;-77
2022/02/02 09:25:27;;;;;;;0.22;0.22;;;8.30;99.90;;;;;;5031444;28;20115;-75
2022/02/02 09:36:18;;;;;;;0.00;0.00;;;8.60;99.90;;;;;;5021405;28;20053;-74
2022/02/02 09:38:44;;;;;;;0.00;0.00;;;8.60;99.90;;;;;;5028469;28;20033;-74
2022/02/02 09:43:45;;;;;;;0.00;0.00;;;8.90;99.90;;;;;;5040358;28;20416;-79
2022/02/02 09:46:15;;;;;;;0.00;0.00;;;8.80;99.90;;;;;;5035434;28;20108;-74
2022/02/02 09:48:47;;;;;;;0.00;0.00;;;8.90;99.90;;;;;;5031648;28;20030;-78
2022/02/02 09:51:20;;;;;;;0.00;0.00;;;8.70;99.90;;;;;;5025366;28;20532;-78
2022/02/02 09:53:56;;;;;;;0.00;0.00;;;8.80;99.90;;;;;;5045354;28;20029;-79
2022/02/02 09:56:59;;;;;;;0.15;0.08;;;9.00;99.90;;;;;;5043093;28;20033;-74
2022/02/02 10:10:46;;;;;;;0.00;0.00;;;9.10;99.90;;;;;;5023255;28;20026;-78
2022/02/02 10:13:26;;;;;;;0.00;0.00;;;9.10;99.90;;;;;;5033134;28;20033;-78
2022/02/02 10:15:54;;;;;;;0.00;0.00;;;9.00;99.90;;;;;;5032784;28;20033;-78
2022/02/02 10:18:31;;;;;;;0.00;0.00;;;8.90;99.90;;;;;;5031699;28;20039;-78
2022/02/02 10:20:57;;;;;;;0.00;0.00;;;8.90;99.90;;;;;;5036258;28;20036;-78
2022/02/02 10:23:28;;;;;;;0.00;0.00;;;9.00;99.90;;;;;;5044205;28;20033;-78
2022/02/02 10:25:58;;;;;;;0.00;0.00;;;9.00;99.90;;;;;;5047636;28;20041;-74
2022/02/02 10:28:33;;;;;;;0.00;0.00;;;9.10;99.90;;;;;;5032612;28;20029;-74
2022/02/02 10:31:05;;;;;;;0.10;0.10;;;9.20;99.90;;;;;;5036643;28;20442;-75
2022/02/02 10:33:32;;;;;;;0.10;0.10;;;9.20;99.90;;;;;;5038286;28;20026;-78
2022/02/02 10:36:07;;;;;;;0.00;0.00;;;9.20;99.90;;;;;;5038341;28;20033;-78
2022/02/02 10:38:43;;;;;;;0.00;0.00;;;9.20;99.90;;;;;;5030711;28;20346;-76
2022/02/02 10:44:03;;;;;;;0.50;0.15;;;9.30;99.90;;;;;;5031257;28;20124;-74
2022/02/02 10:46:34;;;;;;;0.00;0.00;;;9.30;99.90;;;;;;5037637;28;20135;-78
2022/02/02 10:49:25;;;;;;;0.00;0.00;;;9.30;99.90;;;;;;5019624;28;20112;-78
2022/02/02 10:51:58;;;;;;;0.00;0.00;;;9.40;99.90;;;;;;5030010;28;20029;-77
2022/02/02 10:54:41;;;;;;;0.00;0.00;;;9.50;99.90;;;;;;5037887;28;20032;-74
2022/02/02 10:57:33;;;;;;;0.00;0.00;;;9.50;99.90;;;;;;5037397;28;20029;-74
2022/02/02 11:00:13;;;;;;;0.00;0.00;;;9.50;99.90;;;;;;5027787;28;20473;-78
2022/02/02 11:08:08;;;;;;;0.90;0.55;;;9.40;99.90;;;;;;5028840;28;20728;-76
2022/02/02 11:10:34;;;;;;;0.00;0.00;;;9.50;99.90;;;;;;5024686;28;20029;-76
2022/02/02 11:13:02;;;;;;;0.00;0.00;;;9.50;99.90;;;;;;5031789;28;20052;-73
2022/02/02 11:15:44;;;;;;;0.00;0.00;;;9.50;99.90;;;;;;5014159;28;20036;-75
2022/02/02 11:18:23;;;;;;;0.00;0.00;;;9.50;99.90;;;;;;5015218;28;20520;-74
2022/02/02 11:20:49;;;;;;;0.00;0.00;;;9.60;99.90;;;;;;5024707;28;20036;-76
2022/02/02 11:23:15;;;;;;;0.00;0.00;;;9.60;99.90;;;;;;5026752;28;20481;-73
2022/02/02 11:25:58;;;;;;;0.10;0.10;;;9.70;99.90;;;;;;5021563;28;20318;-76
2022/02/02 11:28:34;;;;;;;0.00;0.00;;;9.80;99.90;;;;;;5027370;28;20049;-76
2022/02/02 11:31:15;;;;;;;0.00;0.00;;;9.70;99.90;;;;;;5027774;28;20033;-75
2022/02/02 11:34:19;;;;;;;0.00;0.00;;;9.80;99.90;;;;;;5019951;28;20032;-73
2022/02/02 11:36:54;;;;;;;1.98;0.35;;;9.80;99.90;;;;;;5027210;28;20121;-73
2022/02/02 11:39:58;;;;;;;34.88;1.58;;;9.80;99.90;;;;;;5032440;28;20029;-76
2022/02/02 11:42:54;;;;;;;0.22;0.22;;;9.80;99.90;;;;;;5025275;28;20057;-78
2022/02/02 11:45:52;;;;;;;0.10;0.10;;;9.70;99.90;;;;;;5017141;28;20037;-75
2022/02/02 11:48:56;;;;;;;0.00;0.00;;;9.80;99.90;;;;;;5029088;28;21051;-78
2022/02/02 11:51:41;;;;;;;0.10;0.10;;;9.80;99.90;;;;;;5039543;28;20079;-78
2022/02/02 11:54:09;;;;;;;0.25;0.25;;;9.70;99.90;;;;;;5018355;28;20052;-78
2022/02/02 11:57:21;;;;;;;1.75;0.70;;;9.70;99.90;;;;;;5037740;28;20615;-74
2022/02/02 12:10:55;;;;;;;0.00;0.00;;;9.60;99.90;;;;;;5026333;28;20036;-78
2022/02/02 12:49:22;;;;;;;0.00;0.00;;;10.00;99.90;;;;;;5037314;28;20028;-78
2022/02/02 12:57:26;;;;;;;0.00;0.00;;;10.30;99.90;;;;;;5030011;28;20484;-77
2022/02/02 13:00:07;;;;;;;0.00;0.00;;;10.30;99.90;;;;;;5032130;28;20026;-75
2022/02/02 13:02:37;;;;;;;0.00;0.00;;;10.20;99.90;;;;;;5028638;28;20038;-77
2022/02/02 13:05:03;;;;;;;0.30;0.30;;;10.30;99.90;;;;;;5025040;28;20017;-78
2022/02/02 13:07:31;;;;;;;0.00;0.00;;;10.30;99.90;;;;;;5024186;28;20032;-78
2022/02/02 13:09:58;;;;;;;0.00;0.00;;;10.30;99.90;;;;;;5032363;28;20028;-79
2022/02/02 13:12:24;;;;;;;0.13;0.13;;;10.30;99.90;;;;;;5027503;28;20033;-73
2022/02/02 13:17:26;;;;;;;0.00;0.00;;;10.40;99.90;;;;;;5040073;28;20036;-75
2022/02/02 13:20:00;;;;;;;0.00;0.00;;;10.50;99.90;;;;;;5032080;28;20021;-78
2022/02/02 13:22:29;;;;;;;0.00;0.00;;;10.30;99.90;;;;;;5038306;28;20068;-78
2022/02/02 13:24:54;;;;;;;0.00;0.00;;;10.10;99.90;;;;;;5039469;28;20090;-77
2022/02/02 13:27:22;;;;;;;0.00;0.00;;;9.90;99.90;;;;;;5033295;28;20037;-74
2022/02/02 13:29:52;;;;;;;0.22;0.03;;;9.90;99.90;;;;;;5028567;28;20029;-73
2022/02/02 13:32:27;;;;;;;0.00;0.00;;;9.90;99.90;;;;;;5027879;28;20025;-74
2022/02/02 13:35:08;;;;;;;0.00;0.00;;;9.80;99.90;;;;;;5029801;28;20029;-79
2022/02/02 13:46:06;;;;;;;0.00;0.00;;;9.80;99.90;;;;;;5042314;28;20088;-73
2022/02/02 13:48:52;;;;;;;0.00;0.00;;;9.80;99.90;;;;;;5024467;28;20030;-75
2022/02/02 13:54:12;;;;;;;0.00;0.00;;;10.10;99.90;;;;;;5029904;28;20026;-75
2022/02/02 14:31:10;;;;;;;0.00;0.00;;;9.90;99.90;;;;;;5010932;28;20519;-77
2022/02/02 14:33:38;;;;;;;0.00;0.00;;;9.80;99.90;;;;;;5023599;28;20109;-76
2022/02/02 14:36:06;;;;;;;0.00;0.00;;;9.70;99.90;;;;;;5033299;28;20404;-74
2022/02/02 14:39:20;;;;;;;0.00;0.00;;;9.80;99.90;;;;;;5036870;28;20037;-77
2022/02/02 14:46:22;;;;;;;0.00;0.00;;;9.10;99.90;;;;;;5036602;28;20031;-74
2022/02/02 14:48:55;;;;;;;0.00;0.00;;;9.10;99.90;;;;;;5030301;28;20036;-74
2022/02/02 14:54:07;;;;;;;0.00;0.00;;;9.00;99.90;;;;;;5030615;28;20037;-76
2022/02/02 15:28:40;;;;;;;0.00;0.00;;;9.00;99.90;;;;;;5029186;28;20035;-74
2022/02/02 15:31:05;;;;;;;0.00;0.00;;;9.10;99.90;;;;;;5020550;28;20033;-75
2022/02/02 15:33:32;;;;;;;0.00;0.00;;;9.10;99.90;;;;;;5028315;28;20025;-76
2022/02/02 15:36:49;;;;;;;0.00;0.00;;;9.10;99.90;;;;;;5015908;28;20444;-74
2022/02/02 15:38:50;;;;;;;0.00;0.00;;;9.00;99.90;;;;;;5025608;28;20037;-74
2022/02/02 15:41:23;;;;;;;0.00;0.00;;;8.90;99.90;;;;;;5024890;28;20044;-74
2022/02/02 15:55:03;;;;;;;0.00;0.00;;;8.70;99.90;;;;;;5029825;28;20091;-74
2022/02/02 16:01:10;;;;;;;0.00;0.00;;;8.60;99.90;;;;;;5029708;28;20071;-73
2022/02/02 16:03:13;;;;;;;0.00;0.00;;;8.60;99.90;;;;;;5030094;28;20030;-73
2022/02/02 16:05:50;;;;;;;0.00;0.00;;;8.60;99.90;;;;;;5033980;28;20039;-73
2022/02/02 16:08:20;;;;;;;0.13;0.13;;;8.60;99.90;;;;;;5033526;28;20021;-73
2022/02/02 16:11:01;;;;;;;0.00;0.00;;;8.50;99.90;;;;;;5032313;28;20462;-74
2022/02/02 16:14:04;;;;;;;0.00;0.00;;;8.60;99.90;;;;;;5031846;28;20416;-74
2022/02/02 16:18:50;;;;;;;0.52;0.40;;;8.50;99.90;;;;;;5035394;28;20133;-74
2022/02/02 16:37:32;;;;;;;0.10;0.10;;;8.30;99.90;;;;;;5013345;28;20448;-73
2022/02/02 16:39:59;;;;;;;0.10;0.10;;;8.40;99.90;;;;;;5000327;28;20065;-73
2022/02/02 16:45:12;;;;;;;0.20;0.20;;;8.20;99.90;;;;;;5025648;28;20126;-73
2022/02/02 16:47:38;;;;;;;0.00;0.00;;;8.20;99.90;;;;;;5012085;28;20033;-73
2022/02/02 16:50:04;;;;;;;0.03;0.03;;;8.10;99.90;;;;;;5014330;28;20022;-74
2022/02/02 16:52:32;;;;;;;0.00;0.00;;;8.10;99.90;;;;;;5014900;28;20400;-73
2022/02/02 16:55:02;;;;;;;0.30;0.20;;;8.00;99.90;;;;;;5014619;28;20547;-72
2022/02/02 16:57:45;;;;;;;0.00;0.00;;;8.00;99.90;;;;;;5020674;28;20420;-72
2022/02/02 17:30:26;;;;;;;0.43;0.43;;;7.80;99.90;;;;;;5032139;28;20028;-73
2022/02/02 17:33:02;;;;;;;0.17;0.17;;;7.80;99.90;;;;;;5032611;28;20021;-72
2022/02/02 17:35:36;;;;;;;0.15;0.08;;;7.70;99.90;;;;;;5030174;28;20056;-72
2022/02/02 18:20:54;;;;;;;1.10;0.68;;;7.50;99.90;;;;;;5012006;28;20029;-73
2022/02/02 18:23:40;;;;;;;0.00;0.00;;;7.50;99.90;;;;;;5011696;28;20551;-72
2022/02/02 18:28:46;;;;;;;0.40;0.40;;;7.50;99.90;;;;;;5033030;28;20049;-73
2022/02/02 18:34:22;;;;;;;0.13;0.13;;;7.60;99.90;;;;;;5029144;28;20075;-72
2022/02/02 18:37:41;;;;;;;0.30;0.30;;;7.60;99.90;;;;;;5033134;28;20447;-73
2022/02/02 18:40:49;;;;;;;0.00;0.00;;;7.60;99.90;;;;;;5032653;28;20378;-72
2022/02/02 18:47:55;;;;;;;0.08;0.08;;;7.60;99.90;;;;;;5032596;28;20088;-73
2022/02/02 18:50:33;;;;;;;0.20;0.20;;;7.60;99.90;;;;;;5031848;28;20100;-72
2022/02/02 18:53:39;;;;;;;0.00;0.00;;;7.60;99.90;;;;;;5031955;28;20021;-72
2022/02/02 18:56:21;;;;;;;0.20;0.20;;;7.60;99.90;;;;;;5033148;28;20025;-72
2022/02/02 19:04:29;;;;;;;0.08;0.08;;;7.50;99.90;;;;;;5033045;28;20096;-72
2022/02/02 19:55:40;;;;;;;0.00;0.00;;;7.30;99.90;;;;;;5031858;28;20399;-72
2022/02/02 20:03:54;;;;;;;0.08;0.08;;;7.30;99.90;;;;;;5032705;28;20032;-73
2022/02/02 20:06:34;;;;;;;0.00;0.00;;;7.40;99.90;;;;;;5032624;28;20579;-73
2022/02/02 20:11:35;;;;;;;0.00;0.00;;;7.40;99.90;;;;;;5031701;28;20040;-72
2022/02/02 20:14:01;;;;;;;0.00;0.00;;;7.40;99.90;;;;;;5020970;28;20105;-72
2022/02/02 20:16:27;;;;;;;0.00;0.00;;;7.40;99.90;;;;;;5012225;28;20072;-72
2022/02/02 20:18:56;;;;;;;0.20;0.20;;;7.40;99.90;;;;;;5011312;28;20101;-73
2022/02/02 20:21:24;;;;;;;0.13;0.13;;;7.40;99.90;;;;;;5012692;28;20093;-72
2022/02/02 20:23:51;;;;;;;0.20;0.20;;;7.40;99.90;;;;;;5012229;28;20069;-72
2022/02/02 20:26:21;;;;;;;0.00;0.00;;;7.40;99.90;;;;;;5010962;28;20050;-72
2022/02/02 20:28:47;;;;;;;0.30;0.30;;;7.40;99.90;;;;;;5012170;28;20022;-72
2022/02/02 20:31:14;;;;;;;0.15;0.15;;;7.40;99.90;;;;;;5012541;28;20037;-72
2022/02/02 20:33:40;;;;;;;3.00;1.77;;;7.40;99.90;;;;;;5012717;28;20421;-73
2022/02/02 20:36:06;;;;;;;0.00;0.00;;;7.40;99.90;;;;;;5013356;28;20113;-74
2022/02/02 20:38:32;;;;;;;0.00;0.00;;;7.50;99.90;;;;;;5031640;28;20028;-72
2022/02/02 20:40:58;;;;;;;0.20;0.20;;;7.50;99.90;;;;;;5032040;28;20041;-72
2022/02/02 20:43:44;;;;;;;0.00;0.00;;;7.50;99.90;;;;;;5032226;28;20406;-72
2022/02/02 21:10:24;;;;;;;0.28;0.28;;;7.60;99.90;;;;;;5034608;28;20045;-72
2022/02/02 21:15:37;;;;;;;0.50;0.50;;;7.60;99.90;;;;;;5015235;28;20429;-74
2022/02/02 21:18:08;;;;;;;0.20;0.20;;;7.60;99.90;;;;;;5014334;28;20493;-72
2022/02/02 21:20:42;;;;;;;0.20;0.20;;;7.60;99.90;;;;;;5014742;28;20030;-73
2022/02/02 21:23:25;;;;;;;0.00;0.00;;;7.70;99.90;;;;;;5014958;28;20026;-72
2022/02/02 21:26:18;;;;;;;0.50;0.50;;;7.70;99.90;;;;;;5015059;28;20505;-73
2022/02/02 21:28:38;;;;;;;0.05;0.05;;;7.80;99.90;;;;;;5014520;28;20025;-72
2022/02/02 21:31:05;;;;;;;0.22;0.22;;;7.80;99.90;;;;;;5015010;28;20026;-72
2022/02/02 21:33:33;;;;;;;0.00;0.00;;;7.80;99.90;;;;;;5015221;28;20106;-72
2022/02/02 21:35:59;;;;;;;0.32;0.30;;;7.80;99.90;;;;;;5015975;28;20034;-72
2022/02/02 21:40:56;;;;;;;0.20;0.20;;;7.80;99.90;;;;;;5034583;28;20113;-72
2022/02/02 21:43:24;;;;;;;0.30;0.30;;;7.80;99.90;;;;;;5034657;28;20021;-72
2022/02/02 21:45:49;;;;;;;0.30;0.30;;;7.80;99.90;;;;;;5034685;28;20564;-74
2022/02/02 21:48:16;;;;;;;0.20;0.20;;;7.80;99.90;;;;;;5033318;28;20026;-73
2022/02/02 21:53:10;;;;;;;0.00;0.00;;;7.90;99.90;;;;;;5033986;28;20400;-73
2022/02/02 21:55:37;;;;;;;0.38;0.35;;;7.90;99.90;;;;;;5034477;28;20021;-74
2022/02/02 21:58:03;;;;;;;0.13;0.13;;;7.90;99.90;;;;;;5032837;28;20025;-74
2022/02/02 22:00:28;;;;;;;1.20;1.10;;;7.90;99.90;;;;;;5034151;28;20504;-72
2022/02/02 22:02:54;;;;;;;0.00;0.00;;;8.00;99.90;;;;;;5033839;28;20018;-72
2022/02/02 22:05:20;;;;;;;0.32;0.32;;;8.00;99.90;;;;;;5033437;28;20036;-72
2022/02/02 22:07:45;;;;;;;0.17;0.17;;;8.00;99.90;;;;;;5033625;28;20214;-72
2022/02/02 22:10:11;;;;;;;0.52;0.43;;;8.00;99.90;;;;;;5033038;28;20095;-72
2022/02/02 22:12:40;;;;;;;3.13;0.28;;;8.00;99.90;;;;;;5032596;28;20022;-73
2022/02/02 22:15:09;;;;;;;0.00;0.00;;;8.00;99.90;;;;;;5014254;28;20026;-74
2022/02/02 22:17:35;;;;;;;3.33;0.22;;;8.00;99.90;;;;;;5014044;28;20026;-74
2022/02/02 22:20:06;;;;;;;1.40;0.57;;;8.00;99.90;;;;;;5013239;28;20156;-74
2022/02/02 22:22:32;;;;;;;0.00;0.00;;;8.00;99.90;;;;;;5013802;28;20026;-72
2022/02/02 22:24:58;;;;;;;0.00;0.00;;;8.00;99.90;;;;;;5013945;28;20050;-72
2022/02/02 22:27:24;;;;;;;0.00;0.00;;;8.00;99.90;;;;;;5014051;28;20033;-72
2022/02/02 22:29:49;;;;;;;0.10;0.10;;;8.00;99.90;;;;;;5013281;28;20436;-72
2022/02/02 22:32:15;;;;;;;0.20;0.20;;;8.00;99.90;;;;;;5013958;28;20026;-73
2022/02/02 22:34:40;;;;;;;3.85;0.38;;;8.00;99.90;;;;;;5013682;28;20026;-72
2022/02/02 22:37:06;;;;;;;0.30;0.30;;;8.00;99.90;;;;;;5023542;28;20076;-72
2022/02/02 22:39:32;;;;;;;0.00;0.00;;;8.00;99.90;;;;;;5032915;28;20052;-72
2022/02/02 22:41:59;;;;;;;0.00;0.00;;;8.00;99.90;;;;;;5033171;28;20030;-72
2022/02/02 22:44:30;;;;;;;0.00;0.00;;;8.00;99.90;;;;;;5033364;28;20038;-72
2022/02/02 22:47:04;;;;;;;0.32;0.32;;;8.00;99.90;;;;;;5032707;28;20025;-73
2022/02/02 22:49:30;;;;;;;0.00;0.00;;;8.00;99.90;;;;;;5032535;28;20401;-73
2022/02/02 22:51:56;;;;;;;0.10;0.10;;;8.00;99.90;;;;;;5032761;28;20018;-72
2022/02/02 22:54:22;;;;;;;0.00;0.00;;;8.00;99.90;;;;;;5031951;28;20056;-72
2022/02/02 22:56:47;;;;;;;0.00;0.00;;;8.00;99.90;;;;;;5033193;28;20500;-73
2022/02/02 22:59:13;;;;;;;0.13;0.13;;;8.00;99.90;;;;;;5032044;28;20455;-73
2022/02/02 23:01:40;;;;;;;0.00;0.00;;;8.00;99.90;;;;;;5032896;28;20500;-72
2022/02/02 23:04:06;;;;;;;0.00;0.00;;;8.00;99.90;;;;;;5033223;28;20112;-72
2022/02/02 23:06:31;;;;;;;0.00;0.00;;;8.00;99.90;;;;;;5032831;28;20100;-72
2022/02/02 23:08:58;;;;;;;0.32;0.32;;;8.00;99.90;;;;;;5032501;28;20036;-73
2022/02/02 23:11:25;;;;;;;0.00;0.00;;;8.00;99.90;;;;;;5033306;28;20029;-71
2022/02/02 23:13:53;;;;;;;0.00;0.00;;;8.10;99.90;;;;;;5021504;28;20030;-72
2022/02/02 23:16:34;;;;;;;0.20;0.20;;;8.10;99.90;;;;;;5012315;28;20026;-72
2022/02/02 23:18:59;;;;;;;0.10;0.10;;;8.10;99.90;;;;;;5013180;28;20489;-73
2022/02/02 23:21:26;;;;;;;0.00;0.00;;;8.10;99.90;;;;;;5012799;28;20029;-72
2022/02/02 23:24:01;;;;;;;0.00;0.00;;;8.10;99.90;;;;;;5013028;28;20053;-72
2022/02/02 23:26:27;;;;;;;0.65;0.20;;;8.10;99.90;;;;;;5012931;28;20052;-72
2022/02/02 23:28:57;;;;;;;0.00;0.00;;;8.10;99.90;;;;;;5012347;28;20042;-73
2022/02/02 23:31:24;;;;;;;0.10;0.10;;;8.10;99.90;;;;;;5013090;28;20393;-72
2022/02/02 23:33:50;;;;;;;0.17;0.17;;;8.10;99.90;;;;;;5013039;28;20041;-72
2022/02/02 23:36:15;;;;;;;0.20;0.20;;;8.10;99.90;;;;;;5016061;28;20022;-73
2022/02/02 23:38:41;;;;;;;0.00;0.00;;;8.10;99.90;;;;;;5031687;28;20025;-72
2022/02/02 23:43:51;;;;;;;0.00;0.00;;;8.10;99.90;;;;;;5033007;28;20051;-72
2022/02/02 23:46:23;;;;;;;1.25;0.75;;;8.10;99.90;;;;;;5032298;28;20033;-72